Time;durP1;ratioP1;P1;durP2;ratioP2;P2;SDS_P1;SDS_P2;PMS_P1;PMS_P2;Temp;Humidity;BMP_temperature;BMP_pressure;BME280_temperature;BME280_humidity;BME280_pressure;Samples;Min_cycle;Max_cycle;Signal;HPM_P1;HPM_P2
2024/01/08 00:00:22;;;;;;;2.20;2.00;;;-0.60;99.90;;;;;;5004564;28;20202;-77
2024/01/08 00:03:04;;;;;;;2.20;2.10;;;-0.60;99.90;;;;;;5022118;28;20172;-77
2024/01/08 00:05:30;;;;;;;2.60;2.40;;;-0.50;99.90;;;;;;5004990;28;20239;-77
2024/01/08 00:07:56;;;;;;;2.23;2.03;;;-0.50;99.90;;;;;;5004470;28;20199;-77
2024/01/08 00:10:21;;;;;;;2.27;1.97;;;-0.50;99.90;;;;;;5004592;28;20202;-77
2024/01/08 00:12:47;;;;;;;2.10;2.00;;;-0.50;99.90;;;;;;5002637;28;20183;-77
2024/01/08 00:15:12;;;;;;;2.47;2.10;;;-0.50;99.90;;;;;;4999747;28;20187;-77
2024/01/08 00:17:38;;;;;;;2.37;2.10;;;-0.50;99.90;;;;;;5017149;28;20203;-77
2024/01/08 00:20:04;;;;;;;2.20;2.00;;;-0.50;99.90;;;;;;5032353;28;20239;-77
2024/01/08 00:22:29;;;;;;;1.93;1.83;;;-0.50;99.90;;;;;;4999641;28;20182;-77
2024/01/08 00:24:55;;;;;;;2.40;2.20;;;-0.60;99.90;;;;;;5017649;28;20183;-77
2024/01/08 00:27:20;;;;;;;2.07;1.97;;;-0.60;99.90;;;;;;5016993;28;20211;-77
2024/01/08 00:29:46;;;;;;;2.60;2.40;;;-0.60;99.90;;;;;;5017266;28;20194;-78
2024/01/08 00:32:12;;;;;;;2.33;2.23;;;-0.60;99.90;;;;;;4999457;28;20183;-78
2024/01/08 00:34:40;;;;;;;2.23;2.13;;;-0.70;99.90;;;;;;5032522;28;20229;-78
2024/01/08 00:37:05;;;;;;;2.70;2.50;;;-0.70;99.90;;;;;;5033228;28;20203;-77
2024/01/08 00:39:31;;;;;;;2.50;2.30;;;-0.70;99.90;;;;;;5031953;28;20182;-77
2024/01/08 00:42:39;;;;;;;2.47;2.10;;;-0.70;99.90;;;;;;4999077;28;20277;-77
2024/01/08 00:45:05;;;;;;;2.90;2.70;;;-0.70;99.90;;;;;;4999111;28;20180;-77
2024/01/08 00:47:32;;;;;;;3.13;2.83;;;-0.60;99.90;;;;;;5016367;28;20191;-77
2024/01/08 00:49:57;;;;;;;2.60;2.40;;;-0.60;99.90;;;;;;4999037;28;20637;-75
2024/01/08 00:52:23;;;;;;;2.97;2.40;;;-0.60;99.90;;;;;;4998811;28;20210;-75
2024/01/08 00:54:48;;;;;;;3.43;3.13;;;-0.60;99.90;;;;;;5016394;28;20266;-75
2024/01/08 00:57:14;;;;;;;2.80;2.47;;;-0.60;99.90;;;;;;5016428;28;20299;-75
2024/01/08 00:59:39;;;;;;;2.60;2.40;;;-0.60;99.90;;;;;;4998686;28;20194;-75
2024/01/08 01:02:05;;;;;;;2.57;2.37;;;-0.60;99.90;;;;;;4998721;28;20206;-75
2024/01/08 01:04:30;;;;;;;2.60;2.40;;;-0.60;99.90;;;;;;5016321;28;20187;-75
2024/01/08 01:06:56;;;;;;;2.80;2.50;;;-0.60;99.90;;;;;;4998578;28;20199;-75
2024/01/08 01:09:22;;;;;;;2.50;2.30;;;-0.60;99.90;;;;;;4999176;28;20226;-75
2024/01/08 01:11:47;;;;;;;2.90;2.60;;;-0.60;99.90;;;;;;5015257;28;20187;-75
2024/01/08 01:14:13;;;;;;;2.80;2.47;;;-0.60;99.90;;;;;;4998427;28;20596;-75
2024/01/08 01:16:38;;;;;;;3.70;2.47;;;-0.60;99.90;;;;;;5015776;28;20203;-75
2024/01/08 01:19:04;;;;;;;2.60;2.40;;;-0.70;99.90;;;;;;5031157;28;20214;-75
2024/01/08 01:21:30;;;;;;;3.10;2.80;;;-0.70;99.90;;;;;;5015755;28;20199;-75
2024/01/08 01:23:57;;;;;;;3.00;2.80;;;-0.70;99.90;;;;;;5031329;28;20199;-77
2024/01/08 01:26:22;;;;;;;3.00;2.73;;;-0.70;99.90;;;;;;5015871;28;20341;-77
2024/01/08 01:28:48;;;;;;;2.80;2.60;;;-0.70;99.90;;;;;;5031184;28;20234;-78
2024/01/08 01:31:31;;;;;;;3.43;2.67;;;-0.70;99.90;;;;;;4998296;28;20249;-78
2024/01/08 01:33:56;;;;;;;4.07;3.30;;;-0.70;99.90;;;;;;4999135;28;20195;-77
2024/01/08 01:36:22;;;;;;;2.83;2.60;;;-0.70;99.90;;;;;;5015756;28;20249;-77
2024/01/08 01:38:47;;;;;;;8.20;4.20;;;-0.70;99.90;;;;;;5015914;28;20177;-77
2024/01/08 01:41:13;;;;;;;2.90;2.60;;;-0.60;99.90;;;;;;4998076;28;20203;-77
2024/01/08 01:43:39;;;;;;;3.53;2.90;;;-0.70;99.90;;;;;;5015941;28;20183;-77
2024/01/08 01:46:15;;;;;;;4.47;3.57;;;-0.70;99.90;;;;;;5030962;28;20179;-77
2024/01/08 01:48:41;;;;;;;5.03;3.37;;;-0.60;99.90;;;;;;4998023;28;20182;-77
2024/01/08 01:51:06;;;;;;;4.00;3.20;;;-0.60;99.90;;;;;;4997988;28;20235;-77
2024/01/08 01:53:32;;;;;;;8.20;4.57;;;-0.70;99.90;;;;;;5015999;28;20184;-77
2024/01/08 01:55:58;;;;;;;3.40;3.10;;;-0.70;99.90;;;;;;5015300;28;20210;-77
2024/01/08 01:58:24;;;;;;;2.87;2.67;;;-0.70;99.90;;;;;;4998611;28;20187;-77
2024/01/08 02:19:45;;;;;;;4.07;3.00;;;-0.70;99.90;;;;;;5577395;23;20225;-86
2024/01/08 02:22:12;;;;;;;2.90;2.63;;;-0.70;99.90;;;;;;4955438;28;20194;-86
2024/01/08 02:24:39;;;;;;;3.77;2.90;;;-0.80;99.90;;;;;;4955130;28;20192;-86
2024/01/08 02:27:07;;;;;;;2.77;2.40;;;-0.80;99.90;;;;;;4955908;29;20205;-86
2024/01/08 02:29:35;;;;;;;3.00;2.70;;;-0.80;99.90;;;;;;4955125;28;20285;-86
2024/01/08 02:32:01;;;;;;;2.77;2.57;;;-0.80;99.90;;;;;;4954793;28;20182;-86
2024/01/08 02:34:26;;;;;;;3.03;2.37;;;-0.80;99.90;;;;;;4955290;29;20292;-86
2024/01/08 02:36:52;;;;;;;2.47;2.27;;;-0.80;99.90;;;;;;4955040;29;20204;-86
2024/01/08 02:39:18;;;;;;;2.60;2.40;;;-0.80;99.90;;;;;;4954876;28;20693;-86
2024/01/08 02:41:44;;;;;;;2.70;2.50;;;-0.80;99.90;;;;;;4954954;29;20263;-86
2024/01/08 02:44:12;;;;;;;2.37;2.17;;;-0.80;99.90;;;;;;4954779;29;20244;-86
2024/01/08 02:46:38;;;;;;;2.57;2.37;;;-1.00;99.90;;;;;;4955086;29;20189;-86
2024/01/08 02:49:04;;;;;;;2.60;2.40;;;-0.90;99.90;;;;;;4954621;28;20177;-86
2024/01/08 02:51:29;;;;;;;2.97;2.77;;;-0.90;99.90;;;;;;4954781;29;20329;-85
2024/01/08 02:53:55;;;;;;;3.90;2.57;;;-0.90;99.90;;;;;;4954558;29;20186;-85
2024/01/08 02:56:21;;;;;;;2.80;2.50;;;-0.90;99.90;;;;;;4954781;29;20207;-85
2024/01/08 02:58:50;;;;;;;2.63;2.43;;;-0.90;99.90;;;;;;4955677;28;20638;-85
2024/01/08 03:01:16;;;;;;;2.67;2.40;;;-0.90;99.90;;;;;;4954739;28;20244;-85
2024/01/08 03:03:42;;;;;;;2.80;2.40;;;-0.90;99.90;;;;;;4955090;28;20193;-85
2024/01/08 03:06:07;;;;;;;2.57;2.37;;;-0.90;99.90;;;;;;4954610;29;20185;-85
2024/01/08 03:08:33;;;;;;;3.37;2.80;;;-0.90;99.90;;;;;;4955223;29;20178;-85
2024/01/08 03:10:59;;;;;;;3.23;2.93;;;-0.80;99.90;;;;;;4954475;28;20268;-85
2024/01/08 03:13:24;;;;;;;4.37;2.67;;;-0.80;99.90;;;;;;4955857;29;20182;-85
2024/01/08 03:15:50;;;;;;;3.00;2.70;;;-0.90;99.90;;;;;;4954801;29;20181;-85
2024/01/08 03:18:15;;;;;;;3.90;3.50;;;-0.90;99.90;;;;;;4954488;29;20181;-85
2024/01/08 03:20:41;;;;;;;7.20;5.17;;;-0.90;99.90;;;;;;4954127;28;20272;-85
2024/01/08 03:23:09;;;;;;;7.50;5.30;;;-0.90;99.90;;;;;;4954340;29;20189;-85
2024/01/08 03:25:35;;;;;;;5.50;4.60;;;-0.90;99.90;;;;;;4955145;28;20189;-85
2024/01/08 03:28:01;;;;;;;7.63;5.10;;;-0.90;99.90;;;;;;4954598;29;20177;-85
2024/01/08 03:30:26;;;;;;;5.83;4.10;;;-0.90;99.90;;;;;;4954223;28;20205;-85
2024/01/08 03:32:52;;;;;;;6.20;4.43;;;-0.90;99.90;;;;;;4954264;29;20197;-85
2024/01/08 03:35:18;;;;;;;3.73;3.03;;;-0.90;99.90;;;;;;4955311;29;20260;-85
2024/01/08 03:37:44;;;;;;;5.83;3.97;;;-0.90;99.90;;;;;;4955625;28;20553;-85
2024/01/08 03:40:10;;;;;;;3.30;3.00;;;-0.90;99.90;;;;;;4954139;28;20209;-85
2024/01/08 03:42:36;;;;;;;5.30;3.40;;;-0.90;99.90;;;;;;4954007;29;20195;-85
2024/01/08 03:45:02;;;;;;;3.40;3.10;;;-1.00;99.90;;;;;;4955410;29;20188;-85
2024/01/08 03:47:27;;;;;;;3.53;3.23;;;-1.00;99.90;;;;;;4954153;28;20193;-85
2024/01/08 03:49:57;;;;;;;3.50;3.20;;;-1.00;99.90;;;;;;4954236;28;20202;-85
2024/01/08 03:52:25;;;;;;;3.77;3.37;;;-1.10;99.90;;;;;;4954123;28;20213;-85
2024/01/08 03:54:51;;;;;;;3.40;3.10;;;-1.00;99.90;;;;;;4954280;28;20643;-85
2024/01/08 03:57:16;;;;;;;4.23;3.80;;;-1.10;99.90;;;;;;4953955;29;20180;-85
2024/01/08 03:59:43;;;;;;;3.80;3.30;;;-1.10;99.90;;;;;;4954172;28;20263;-85
2024/01/08 04:02:08;;;;;;;3.53;3.23;;;-1.10;99.90;;;;;;4953986;28;20189;-85
2024/01/08 04:04:34;;;;;;;4.47;3.50;;;-1.10;99.90;;;;;;4953980;29;20181;-85
2024/01/08 04:07:00;;;;;;;3.60;3.30;;;-1.10;99.90;;;;;;4954442;29;20195;-85
2024/01/08 04:09:26;;;;;;;4.13;3.23;;;-1.10;99.90;;;;;;4954648;28;20274;-85
2024/01/08 04:11:52;;;;;;;4.60;3.80;;;-1.10;99.90;;;;;;4953895;29;20193;-85
2024/01/08 04:14:17;;;;;;;4.07;3.30;;;-1.20;99.90;;;;;;4953898;28;20183;-85
2024/01/08 04:16:43;;;;;;;4.03;3.33;;;-1.30;99.90;;;;;;4953919;29;20189;-85
2024/01/08 04:19:08;;;;;;;4.93;3.63;;;-1.40;99.90;;;;;;4954798;28;20264;-85
2024/01/08 04:21:34;;;;;;;4.17;3.40;;;-1.40;99.90;;;;;;4954488;29;20209;-85
2024/01/08 04:24:00;;;;;;;3.63;3.33;;;-1.40;99.90;;;;;;4953858;29;20241;-85
2024/01/08 04:26:25;;;;;;;4.07;3.20;;;-1.50;99.90;;;;;;4953794;28;20188;-85
2024/01/08 04:28:52;;;;;;;3.80;3.20;;;-1.50;99.90;;;;;;4954027;29;20177;-85
2024/01/08 04:31:18;;;;;;;4.03;3.50;;;-1.60;99.90;;;;;;4953896;28;20264;-85
2024/01/08 04:33:44;;;;;;;4.13;3.43;;;-1.60;99.90;;;;;;4953572;28;20285;-85
2024/01/08 04:36:10;;;;;;;3.90;3.47;;;-1.60;99.90;;;;;;4953781;29;20221;-85
2024/01/08 04:38:36;;;;;;;4.63;3.53;;;-1.60;99.90;;;;;;4955175;29;20208;-85
2024/01/08 04:41:02;;;;;;;3.93;3.30;;;-1.50;99.90;;;;;;4954177;28;20214;-85
2024/01/08 04:43:27;;;;;;;3.60;3.30;;;-1.60;99.90;;;;;;4953517;29;20181;-85
2024/01/08 04:45:53;;;;;;;3.97;3.57;;;-1.60;99.90;;;;;;4955226;28;20186;-85
2024/01/08 04:48:18;;;;;;;4.00;3.30;;;-1.80;99.90;;;;;;4957057;29;20173;-85
2024/01/08 04:50:44;;;;;;;4.60;3.63;;;-1.90;99.90;;;;;;4957192;28;20207;-85
2024/01/08 04:53:09;;;;;;;7.10;4.10;;;-2.00;99.90;;;;;;4956935;29;20220;-85
2024/01/08 04:55:35;;;;;;;4.53;3.67;;;-2.20;99.90;;;;;;4957030;29;20192;-85
2024/01/08 04:58:00;;;;;;;4.93;3.90;;;-2.30;99.90;;;;;;4956815;29;20181;-85
2024/01/08 05:00:26;;;;;;;4.20;3.70;;;-2.40;99.90;;;;;;4956642;28;20249;-84
2024/01/08 05:02:51;;;;;;;6.73;3.73;;;-2.50;99.90;;;;;;4956900;29;20185;-84
2024/01/08 05:05:17;;;;;;;5.10;4.13;;;-2.60;99.90;;;;;;4956995;29;20217;-84
2024/01/08 05:07:43;;;;;;;7.93;4.73;;;-2.60;99.90;;;;;;4956561;29;20189;-84
2024/01/08 05:10:08;;;;;;;11.50;6.20;;;-2.70;99.90;;;;;;4956663;28;20201;-84
2024/01/08 05:12:37;;;;;;;11.97;5.83;;;-2.80;99.90;;;;;;4957419;28;20190;-84
2024/01/08 05:15:03;;;;;;;6.60;4.50;;;-2.90;99.90;;;;;;4957036;28;20190;-84
2024/01/08 05:17:29;;;;;;;6.67;4.70;;;-3.00;99.90;;;;;;4956713;28;20240;-84
2024/01/08 05:19:54;;;;;;;7.80;4.90;;;-3.10;99.90;;;;;;4956400;28;20312;-84
2024/01/08 05:22:20;;;;;;;7.57;4.90;;;-3.10;99.90;;;;;;4956953;29;20185;-84
2024/01/08 05:24:46;;;;;;;7.93;4.80;;;-3.20;99.90;;;;;;4957329;29;20177;-84
2024/01/08 05:27:12;;;;;;;6.43;4.60;;;-3.20;99.90;;;;;;4956556;28;20174;-84
2024/01/08 05:29:37;;;;;;;7.87;5.10;;;-3.30;99.90;;;;;;4956364;28;20198;-84
2024/01/08 05:32:29;;;;;;;10.73;5.93;;;-3.40;99.90;;;;;;4956417;29;20178;-84
2024/01/08 05:34:54;;;;;;;9.13;5.07;;;-3.50;99.90;;;;;;4956371;29;20178;-84
2024/01/08 05:37:20;;;;;;;7.30;4.30;;;-3.50;99.90;;;;;;4956268;28;20181;-84
2024/01/08 05:39:45;;;;;;;9.30;5.23;;;-3.50;99.90;;;;;;4957194;28;20681;-85
2024/01/08 05:42:11;;;;;;;17.93;7.50;;;-3.50;99.90;;;;;;4956804;29;20178;-85
2024/01/08 05:44:37;;;;;;;13.17;6.37;;;-3.50;99.90;;;;;;4956834;29;20173;-85
2024/01/08 05:47:03;;;;;;;13.77;6.93;;;-3.60;99.90;;;;;;4956965;28;20181;-85
2024/01/08 05:49:29;;;;;;;8.43;5.63;;;-3.50;99.90;;;;;;4956444;28;20221;-83
2024/01/08 05:51:54;;;;;;;4.77;4.10;;;-3.60;99.90;;;;;;4956348;29;20213;-83
2024/01/08 05:54:20;;;;;;;5.13;4.33;;;-3.60;99.90;;;;;;4956145;29;20185;-83
2024/01/08 05:56:46;;;;;;;5.33;4.83;;;-3.60;99.90;;;;;;4955343;28;20205;-83
2024/01/08 05:59:11;;;;;;;5.97;4.77;;;-3.70;99.90;;;;;;4956102;28;20181;-83
2024/01/08 06:01:38;;;;;;;8.83;6.30;;;-3.70;99.90;;;;;;4956343;29;20248;-83
2024/01/08 06:04:04;;;;;;;5.80;4.50;;;-3.80;99.90;;;;;;4960055;29;20201;-85
2024/01/08 06:06:30;;;;;;;7.13;4.63;;;-3.80;99.90;;;;;;4959983;29;20174;-84
2024/01/08 06:09:02;;;;;;;5.13;3.90;;;-3.80;99.90;;;;;;4959209;28;20181;-83
2024/01/08 06:11:27;;;;;;;5.43;3.93;;;-3.80;99.90;;;;;;4956779;29;20193;-84
2024/01/08 06:13:53;;;;;;;8.47;5.47;;;-4.00;99.90;;;;;;4955715;29;20177;-84
2024/01/08 06:16:19;;;;;;;10.73;5.90;;;-4.00;99.90;;;;;;4956719;29;20204;-84
2024/01/08 06:18:44;;;;;;;9.43;5.70;;;-4.00;99.90;;;;;;4955509;29;20209;-84
2024/01/08 06:21:10;;;;;;;6.63;4.83;;;-4.10;99.90;;;;;;4957425;28;20213;-84
2024/01/08 06:23:36;;;;;;;7.80;5.00;;;-4.10;99.90;;;;;;4957044;28;20170;-83
2024/01/08 06:26:04;;;;;;;9.90;6.00;;;-4.10;99.90;;;;;;4956584;29;20174;-83
2024/01/08 06:28:30;;;;;;;10.37;6.30;;;-4.10;99.90;;;;;;4956626;29;20178;-83
2024/01/08 06:30:56;;;;;;;9.30;6.23;;;-4.20;99.90;;;;;;4956139;28;20201;-83
2024/01/08 06:33:22;;;;;;;10.17;6.53;;;-4.20;99.90;;;;;;4955672;29;20275;-84
2024/01/08 06:35:48;;;;;;;8.83;5.97;;;-4.20;99.90;;;;;;4955593;29;20184;-84
2024/01/08 06:38:14;;;;;;;10.00;6.57;;;-4.20;99.90;;;;;;4955255;29;20194;-84
2024/01/08 06:40:39;;;;;;;11.00;7.10;;;-4.30;99.90;;;;;;4955914;28;20225;-84
2024/01/08 06:43:05;;;;;;;9.97;6.87;;;-4.30;99.90;;;;;;4956160;29;20194;-84
2024/01/08 06:45:31;;;;;;;11.10;7.03;;;-4.30;99.90;;;;;;4955265;29;20182;-84
2024/01/08 06:47:57;;;;;;;6.67;5.07;;;-4.30;99.90;;;;;;4955672;29;20236;-84
2024/01/08 06:50:23;;;;;;;8.53;6.07;;;-4.30;99.90;;;;;;4955196;28;20237;-84
2024/01/08 06:52:48;;;;;;;8.97;6.10;;;-4.30;99.90;;;;;;4955478;29;20192;-84
2024/01/08 06:55:17;;;;;;;8.63;6.80;;;-4.30;99.90;;;;;;4955806;29;20228;-84
2024/01/08 06:57:43;;;;;;;8.63;6.30;;;-4.40;99.90;;;;;;4955729;29;20189;-84
2024/01/08 07:00:09;;;;;;;6.13;5.13;;;-4.40;99.90;;;;;;4955497;28;20223;-84
2024/01/08 07:02:37;;;;;;;7.57;5.83;;;-4.40;99.90;;;;;;4954850;29;20209;-84
2024/01/08 07:05:03;;;;;;;6.93;5.07;;;-4.40;99.90;;;;;;4954877;29;20186;-84
2024/01/08 07:07:29;;;;;;;7.27;5.73;;;-4.40;99.90;;;;;;4956003;28;20732;-84
2024/01/08 07:09:54;;;;;;;8.27;5.60;;;-4.40;99.90;;;;;;4954868;28;20204;-84
2024/01/08 07:12:20;;;;;;;6.70;5.43;;;-4.40;99.90;;;;;;4955702;29;20182;-84
2024/01/08 07:14:46;;;;;;;6.77;5.50;;;-4.40;99.90;;;;;;4954757;29;20177;-84
2024/01/08 07:17:12;;;;;;;11.63;7.33;;;-4.50;99.90;;;;;;4956467;28;20169;-84
2024/01/08 07:19:37;;;;;;;19.07;9.73;;;-4.50;99.90;;;;;;4954725;28;20212;-84
2024/01/08 07:22:04;;;;;;;16.87;9.10;;;-4.50;99.90;;;;;;4954556;29;20279;-84
2024/01/08 07:24:29;;;;;;;18.70;10.20;;;-4.60;99.90;;;;;;4954822;28;20181;-84
2024/01/08 07:26:57;;;;;;;19.17;9.90;;;-4.60;99.90;;;;;;4955167;29;20202;-84
2024/01/08 07:29:22;;;;;;;16.70;9.30;;;-4.60;99.90;;;;;;4954885;28;20305;-84
2024/01/08 07:31:48;;;;;;;9.77;6.20;;;-4.60;99.90;;;;;;4955588;29;20209;-84
2024/01/08 07:34:14;;;;;;;9.87;6.30;;;-4.60;99.90;;;;;;4955089;29;20192;-84
2024/01/08 07:36:40;;;;;;;9.30;5.33;;;-4.60;99.90;;;;;;4954592;29;20185;-84
2024/01/08 07:39:06;;;;;;;8.00;5.70;;;-4.60;99.90;;;;;;4954561;28;20184;-84
2024/01/08 07:41:31;;;;;;;8.83;6.20;;;-4.60;99.90;;;;;;4955498;29;20221;-84
2024/01/08 07:43:57;;;;;;;7.97;5.60;;;-4.60;99.90;;;;;;4954931;29;20182;-84
2024/01/08 07:46:22;;;;;;;6.70;5.13;;;-4.60;99.90;;;;;;4954645;29;20189;-84
2024/01/08 07:48:50;;;;;;;7.63;5.53;;;-4.60;99.90;;;;;;4954891;29;20185;-84
2024/01/08 07:51:22;;;;;;;6.97;5.47;;;-4.60;99.90;;;;;;4954667;28;20202;-84
2024/01/08 07:53:53;;;;;;;9.60;6.63;;;-4.60;99.90;;;;;;4955372;29;20623;-84
2024/01/08 07:56:25;;;;;;;7.03;5.60;;;-4.60;99.90;;;;;;4955151;29;20185;-84
2024/01/08 07:58:53;;;;;;;6.77;5.43;;;-4.70;99.90;;;;;;4954253;29;20203;-85
2024/01/08 08:01:18;;;;;;;8.73;6.00;;;-4.60;99.90;;;;;;4952879;29;20296;-85
2024/01/08 08:03:45;;;;;;;7.93;5.97;;;-4.50;99.90;;;;;;4954088;29;20316;-85
2024/01/08 08:06:11;;;;;;;9.20;5.57;;;-4.40;99.90;;;;;;4955223;29;20170;-84
2024/01/08 08:08:37;;;;;;;9.10;5.90;;;-4.40;99.90;;;;;;4953967;29;20277;-84
2024/01/08 08:11:10;;;;;;;8.93;6.40;;;-4.50;99.90;;;;;;4955389;28;20202;-84
2024/01/08 08:13:35;;;;;;;12.33;7.83;;;-4.50;99.90;;;;;;4954066;29;20173;-84
2024/01/08 08:16:01;;;;;;;7.43;5.87;;;-4.00;99.90;;;;;;4955225;29;20237;-85
2024/01/08 08:18:27;;;;;;;8.37;5.23;;;-3.30;99.90;;;;;;4955046;29;20308;-85
2024/01/08 08:20:52;;;;;;;7.57;5.33;;;-2.90;99.90;;;;;;4956695;28;20684;-85
2024/01/08 08:23:18;;;;;;;8.33;5.40;;;-3.10;99.90;;;;;;4958279;29;20248;-85
2024/01/08 08:25:57;;;;;;;7.50;5.03;;;-2.90;99.90;;;;;;4959158;28;20213;-85
2024/01/08 08:28:22;;;;;;;6.20;4.80;;;-2.50;99.90;;;;;;4958184;29;20181;-85
2024/01/08 08:30:48;;;;;;;7.67;4.97;;;-2.40;99.90;;;;;;4957347;28;20303;-85
2024/01/08 08:33:13;;;;;;;6.17;4.73;;;-2.60;99.90;;;;;;4957901;29;20249;-85
2024/01/08 08:35:49;;;;;;;7.57;5.17;;;-3.00;99.40;;;;;;4957272;29;20196;-85
2024/01/08 08:38:16;;;;;;;7.57;5.20;;;-3.60;99.90;;;;;;4957592;29;20201;-85
2024/01/08 08:40:43;;;;;;;10.23;4.73;;;-4.00;99.90;;;;;;4957043;28;20690;-85
2024/01/08 08:43:16;;;;;;;7.87;5.20;;;-4.10;99.90;;;;;;4957318;29;20638;-85
2024/01/08 08:45:42;;;;;;;7.17;5.27;;;-4.10;99.90;;;;;;4957122;29;20166;-85
2024/01/08 08:48:09;;;;;;;8.43;5.83;;;-4.10;99.90;;;;;;4957159;29;20181;-83
2024/01/08 08:50:35;;;;;;;8.37;6.43;;;-4.30;99.90;;;;;;4957192;28;20235;-85
2024/01/08 08:53:00;;;;;;;7.50;5.80;;;-4.30;99.90;;;;;;4957147;29;20216;-85
2024/01/08 08:55:26;;;;;;;5.80;4.77;;;-4.30;99.90;;;;;;4958010;29;20205;-88
2024/01/08 08:57:52;;;;;;;8.67;6.07;;;-4.30;99.90;;;;;;4956853;29;20181;-85
2024/01/08 09:00:18;;;;;;;7.90;5.30;;;-4.30;99.90;;;;;;4957683;28;20214;-85
2024/01/08 09:02:43;;;;;;;8.10;5.87;;;-4.20;99.90;;;;;;4957986;29;20185;-85
2024/01/08 09:05:09;;;;;;;11.13;6.33;;;-4.10;99.90;;;;;;4958225;29;20182;-85
2024/01/08 09:07:35;;;;;;;9.83;5.53;;;-4.00;99.90;;;;;;4958620;29;20169;-85
2024/01/08 09:10:01;;;;;;;9.20;6.13;;;-4.00;99.90;;;;;;4959273;28;20193;-85
2024/01/08 09:12:26;;;;;;;6.97;5.03;;;-3.90;99.90;;;;;;4958898;29;20181;-85
2024/01/08 09:14:53;;;;;;;7.33;5.77;;;-3.90;99.90;;;;;;4959687;29;20184;-85
2024/01/08 09:17:21;;;;;;;8.77;6.60;;;-3.80;99.90;;;;;;4958454;29;20638;-84
2024/01/08 09:19:49;;;;;;;7.47;5.90;;;-3.40;99.90;;;;;;4956801;28;20308;-84
2024/01/08 09:22:15;;;;;;;8.67;6.03;;;-3.30;99.90;;;;;;4958090;29;20232;-84
2024/01/08 09:24:40;;;;;;;9.47;5.97;;;-3.40;99.90;;;;;;4956841;28;20177;-84
2024/01/08 09:27:06;;;;;;;9.10;6.00;;;-3.40;99.90;;;;;;4957881;28;20194;-85
2024/01/08 09:29:32;;;;;;;11.77;6.63;;;-3.40;99.90;;;;;;4956512;28;20236;-85
2024/01/08 09:31:57;;;;;;;13.77;8.27;;;-3.40;99.90;;;;;;4955835;28;20189;-85
2024/01/08 09:34:23;;;;;;;10.33;7.57;;;-3.40;99.90;;;;;;4956255;29;20197;-86
2024/01/08 09:36:49;;;;;;;11.07;6.53;;;-3.30;99.90;;;;;;4956507;29;20218;-84
2024/01/08 09:39:15;;;;;;;8.77;6.13;;;-3.30;99.90;;;;;;4956065;28;20201;-83
2024/01/08 09:41:42;;;;;;;8.73;5.90;;;-3.30;99.90;;;;;;4956686;29;20210;-84
2024/01/08 09:44:14;;;;;;;8.93;6.73;;;-3.20;99.90;;;;;;4959652;29;20205;-84
2024/01/08 09:46:47;;;;;;;8.17;6.03;;;-3.20;99.90;;;;;;4957417;29;20166;-84
2024/01/08 09:49:15;;;;;;;8.50;5.80;;;-3.30;99.60;;;;;;4955938;28;20169;-83
2024/01/08 09:51:41;;;;;;;9.60;6.20;;;-3.50;99.50;;;;;;4955819;29;20193;-84
2024/01/08 09:54:08;;;;;;;8.60;6.33;;;-3.50;99.90;;;;;;4956316;29;20220;-85
2024/01/08 09:56:34;;;;;;;7.07;5.40;;;-3.50;99.90;;;;;;4955676;29;20280;-85
2024/01/08 09:59:00;;;;;;;10.87;6.90;;;-3.40;99.90;;;;;;4956810;28;20245;-84
2024/01/08 10:01:26;;;;;;;8.53;6.50;;;-3.40;99.90;;;;;;4955576;29;20201;-85
2024/01/08 10:03:52;;;;;;;8.13;6.23;;;-3.30;99.90;;;;;;4955698;29;20185;-85
2024/01/08 10:06:18;;;;;;;10.03;7.17;;;-3.50;99.80;;;;;;4955490;29;20280;-88
2024/01/08 10:08:44;;;;;;;10.60;6.70;;;-3.50;99.90;;;;;;4955503;29;20217;-84
2024/01/08 10:11:10;;;;;;;9.90;7.20;;;-3.60;99.10;;;;;;4955238;28;20269;-84
2024/01/08 10:13:36;;;;;;;10.07;6.53;;;-3.90;99.10;;;;;;4955595;29;20261;-85
2024/01/08 10:16:02;;;;;;;9.27;6.97;;;-4.10;99.20;;;;;;4956616;28;20204;-84
2024/01/08 10:18:28;;;;;;;9.63;6.40;;;-4.30;99.30;;;;;;4956805;28;20185;-84
2024/01/08 10:21:12;;;;;;;11.93;7.17;;;-4.30;99.70;;;;;;4955175;28;20217;-84
2024/01/08 10:23:38;;;;;;;12.77;6.80;;;-4.20;99.40;;;;;;4956089;29;20177;-84
2024/01/08 10:26:04;;;;;;;11.67;6.73;;;-4.20;99.80;;;;;;4955282;29;20269;-84
2024/01/08 10:28:37;;;;;;;10.30;6.77;;;-4.10;99.60;;;;;;4955194;29;20225;-84
2024/01/08 10:31:07;;;;;;;10.20;6.90;;;-4.10;99.80;;;;;;4955323;28;20220;-84
2024/01/08 10:33:33;;;;;;;9.83;6.63;;;-4.00;99.10;;;;;;4955009;29;20174;-84
2024/01/08 10:36:04;;;;;;;10.33;6.90;;;-3.90;99.50;;;;;;4955363;29;20177;-84
2024/01/08 10:38:34;;;;;;;11.47;7.23;;;-3.90;98.80;;;;;;4956113;29;20205;-84
2024/01/08 10:41:01;;;;;;;9.63;7.07;;;-4.10;98.70;;;;;;4954780;28;20247;-84
2024/01/08 10:43:30;;;;;;;9.20;7.03;;;-4.20;99.10;;;;;;4954966;28;20189;-84
2024/01/08 10:46:04;;;;;;;11.30;7.60;;;-4.20;98.90;;;;;;4954947;29;20208;-84
2024/01/08 10:48:43;;;;;;;12.93;7.60;;;-4.30;98.90;;;;;;4954912;29;20177;-84
2024/01/08 10:51:09;;;;;;;10.80;7.67;;;-4.30;99.50;;;;;;4954775;28;20201;-84
2024/01/08 10:53:44;;;;;;;10.87;7.00;;;-4.30;99.00;;;;;;4955886;28;20177;-84
2024/01/08 10:56:13;;;;;;;9.73;6.97;;;-4.30;98.70;;;;;;4954810;29;20221;-83
2024/01/08 10:58:49;;;;;;;11.00;7.53;;;-4.30;99.00;;;;;;4954513;28;20186;-83
2024/01/08 11:01:16;;;;;;;10.20;6.97;;;-4.30;99.00;;;;;;4954742;28;20204;-83
2024/01/08 11:03:43;;;;;;;10.80;7.13;;;-4.30;99.10;;;;;;4955759;28;20177;-83
2024/01/08 11:06:10;;;;;;;10.43;7.13;;;-4.20;99.50;;;;;;4954468;29;20182;-83
2024/01/08 11:08:36;;;;;;;11.63;7.17;;;-4.10;99.20;;;;;;4954933;29;20177;-83
2024/01/08 11:11:08;;;;;;;11.97;8.03;;;-4.20;98.70;;;;;;4954399;28;20628;-83
2024/01/08 11:13:38;;;;;;;11.23;7.50;;;-4.20;98.90;;;;;;4954737;29;20299;-83
2024/01/08 11:16:06;;;;;;;10.83;7.50;;;-4.20;99.00;;;;;;4954716;29;20190;-83
2024/01/08 11:18:32;;;;;;;11.70;7.93;;;-4.20;99.00;;;;;;4955229;29;20201;-83
2024/01/08 11:20:59;;;;;;;10.57;7.07;;;-4.10;99.90;;;;;;4954390;28;20756;-83
2024/01/08 11:23:40;;;;;;;9.83;6.80;;;-3.90;99.60;;;;;;4954169;29;20208;-84
2024/01/08 11:26:22;;;;;;;10.57;7.07;;;-3.70;99.60;;;;;;4954403;29;20177;-84
2024/01/08 11:29:05;;;;;;;9.40;6.77;;;-3.70;98.70;;;;;;4954351;29;20186;-84
2024/01/08 11:32:08;;;;;;;10.77;7.50;;;-3.70;99.10;;;;;;4954401;29;20185;-84
2024/01/08 11:34:39;;;;;;;14.63;8.43;;;-3.60;98.80;;;;;;4955088;29;20192;-84
2024/01/08 11:37:29;;;;;;;13.73;8.77;;;-3.60;98.50;;;;;;4954185;29;20310;-84
2024/01/08 11:39:55;;;;;;;10.17;7.23;;;-3.60;98.70;;;;;;4954477;28;20201;-84
2024/01/08 11:42:21;;;;;;;16.33;8.70;;;-3.50;98.80;;;;;;4955062;29;20649;-84
2024/01/08 11:44:49;;;;;;;13.80;7.33;;;-3.50;99.00;;;;;;4955040;29;20189;-84
2024/01/08 11:47:15;;;;;;;14.63;8.33;;;-3.30;99.00;;;;;;4954528;29;20181;-84
2024/01/08 11:49:40;;;;;;;11.07;8.27;;;-3.20;99.00;;;;;;4954264;28;20205;-84
2024/01/08 11:52:08;;;;;;;12.63;8.07;;;-3.20;98.40;;;;;;4955200;28;20185;-84
2024/01/08 11:54:34;;;;;;;11.87;8.40;;;-3.20;98.40;;;;;;4955277;28;20243;-84
2024/01/08 11:57:30;;;;;;;12.83;7.90;;;-3.30;98.30;;;;;;4959121;28;20186;-84
2024/01/08 11:59:56;;;;;;;11.00;8.00;;;-3.20;98.60;;;;;;4957766;28;20694;-84
2024/01/08 12:02:24;;;;;;;12.13;8.57;;;-3.30;98.20;;;;;;4957821;29;20264;-84
2024/01/08 12:04:55;;;;;;;10.67;7.73;;;-3.40;98.30;;;;;;4957787;29;20181;-84
2024/01/08 12:07:23;;;;;;;10.27;7.50;;;-3.50;98.50;;;;;;4958565;29;20213;-84
2024/01/08 12:09:49;;;;;;;12.97;8.03;;;-3.50;98.60;;;;;;4958112;28;20224;-84
2024/01/08 12:12:16;;;;;;;14.47;8.87;;;-3.50;98.40;;;;;;4958095;29;20267;-84
2024/01/08 12:14:42;;;;;;;10.00;7.93;;;-3.50;98.60;;;;;;4957637;29;20178;-84
2024/01/08 12:17:11;;;;;;;12.10;8.47;;;-3.50;98.60;;;;;;4957662;29;20192;-84
2024/01/08 12:20:03;;;;;;;11.30;7.93;;;-3.40;98.60;;;;;;4958240;28;20240;-84
2024/01/08 12:22:30;;;;;;;10.83;8.53;;;-3.40;98.60;;;;;;4954956;29;20205;-83
2024/01/08 12:24:56;;;;;;;10.23;7.33;;;-3.40;98.20;;;;;;4957531;29;20272;-83
2024/01/08 12:27:23;;;;;;;11.60;7.90;;;-3.40;98.60;;;;;;4957749;29;20189;-83
2024/01/08 12:29:54;;;;;;;10.63;7.83;;;-3.40;98.30;;;;;;4957490;28;20264;-84
2024/01/08 12:32:22;;;;;;;11.07;8.13;;;-3.50;98.60;;;;;;4958403;29;20208;-84
2024/01/08 12:34:51;;;;;;;9.53;7.50;;;-3.40;99.10;;;;;;4957270;29;20186;-84
2024/01/08 12:37:18;;;;;;;12.33;6.90;;;-3.40;99.00;;;;;;4980842;23;20268;-76
2024/01/08 12:40:04;;;;;;;11.20;7.23;;;-3.40;98.60;;;;;;4959035;28;20233;-76
2024/01/08 12:42:34;;;;;;;9.67;6.50;;;-3.50;98.70;;;;;;4957957;28;20276;-76
2024/01/08 12:45:39;;;;;;;10.70;6.77;;;-3.40;98.60;;;;;;4958565;28;20182;-74
2024/01/08 12:48:05;;;;;;;27.17;15.33;;;-3.50;98.30;;;;;;4937946;29;20174;-73
2024/01/08 12:50:30;;;;;;;8.63;6.40;;;-3.50;98.40;;;;;;4938915;29;20189;-77
2024/01/08 12:52:57;;;;;;;9.07;6.47;;;-3.50;98.60;;;;;;4940044;29;20182;-73
2024/01/08 12:55:24;;;;;;;11.10;7.53;;;-3.50;98.90;;;;;;4937648;29;20174;-73
2024/01/08 12:57:49;;;;;;;31.20;16.63;;;-3.40;98.90;;;;;;4939895;29;20198;-74
2024/01/08 13:00:16;;;;;;;13.50;8.00;;;-3.40;98.30;;;;;;4939989;29;20194;-75
2024/01/08 13:02:42;;;;;;;11.90;7.90;;;-3.40;99.10;;;;;;4940069;29;20174;-75